sensor_id;sensor_type;location;lat;lon;timestamp;pressure;altitude;pressure_sealevel;temperature;humidity
5703;BME280;2876;51.738;10.050;2023-04-08T00:05:38;99766.03;;;7.70;73.71
5703;BME280;2876;51.738;10.050;2023-04-08T00:11:40;99763.53;;;7.77;74.63
5703;BME280;2876;51.738;10.050;2023-04-08T00:17:43;99753.03;;;7.67;75.09
5703;BME280;2876;51.738;10.050;2023-04-08T00:23:46;99745.38;;;7.64;76.31
5703;BME280;2876;51.738;10.050;2023-04-08T00:29:48;99752.16;;;7.83;77.65
5703;BME280;2876;51.738;10.050;2023-04-08T00:35:50;99749.72;;;7.57;78.47
5703;BME280;2876;51.738;10.050;2023-04-08T00:41:53;99755.06;;;7.49;79.60
5703;BME280;2876;51.738;10.050;2023-04-08T00:47:55;99754.22;;;7.73;80.31
5703;BME280;2876;51.738;10.050;2023-04-08T00:53:57;99761.72;;;7.53;80.97
5703;BME280;2876;51.738;10.050;2023-04-08T01:00:03;99756.25;;;7.30;81.97
5703;BME280;2876;51.738;10.050;2023-04-08T01:06:22;99756.44;;;7.36;83.62
5703;BME280;2876;51.738;10.050;2023-04-08T01:12:33;99765.44;;;7.27;84.51
5703;BME280;2876;51.738;10.050;2023-04-08T01:18:38;99758.59;;;7.25;85.63
5703;BME280;2876;51.738;10.050;2023-04-08T01:24:42;99762.91;;;7.50;86.22
5703;BME280;2876;51.738;10.050;2023-04-08T01:30:45;99760.94;;;7.11;86.34
5703;BME280;2876;51.738;10.050;2023-04-08T01:36:48;99768.59;;;7.15;87.90
5703;BME280;2876;51.738;10.050;2023-04-08T01:42:54;99763.25;;;6.98;88.36
5703;BME280;2876;51.738;10.050;2023-04-08T01:48:58;99751.91;;;7.12;89.32
5703;BME280;2876;51.738;10.050;2023-04-08T01:55:00;99765.59;;;6.77;90.60
5703;BME280;2876;51.738;10.050;2023-04-08T02:01:05;99759.88;;;6.72;91.00
5703;BME280;2876;51.738;10.050;2023-04-08T02:07:11;99762.06;;;6.76;91.64
5703;BME280;2876;51.738;10.050;2023-04-08T02:13:13;99755.53;;;6.63;92.54
5703;BME280;2876;51.738;10.050;2023-04-08T02:19:23;99774.88;;;6.65;92.90
5703;BME280;2876;51.738;10.050;2023-04-08T02:25:28;99763.09;;;6.92;92.10
5703;BME280;2876;51.738;10.050;2023-04-08T02:31:32;99772.56;;;6.94;92.15
5703;BME280;2876;51.738;10.050;2023-04-08T02:37:35;99767.88;;;6.64;92.74
5703;BME280;2876;51.738;10.050;2023-04-08T02:43:37;99760.22;;;6.69;93.51
5703;BME280;2876;51.738;10.050;2023-04-08T02:49:39;99762.22;;;6.75;93.43
5703;BME280;2876;51.738;10.050;2023-04-08T02:55:41;99768.88;;;6.71;93.40
5703;BME280;2876;51.738;10.050;2023-04-08T03:01:42;99765.03;;;6.65;93.90
5703;BME280;2876;51.738;10.050;2023-04-08T03:07:45;99778.59;;;6.88;93.11
5703;BME280;2876;51.738;10.050;2023-04-08T03:13:46;99777.06;;;6.69;93.46
5703;BME280;2876;51.738;10.050;2023-04-08T03:19:48;99781.69;;;6.67;93.65
5703;BME280;2876;51.738;10.050;2023-04-08T03:25:51;99779.69;;;6.61;93.57
5703;BME280;2876;51.738;10.050;2023-04-08T03:31:53;99783.53;;;6.67;93.47
5703;BME280;2876;51.738;10.050;2023-04-08T03:37:55;99787.34;;;6.56;94.29
5703;BME280;2876;51.738;10.050;2023-04-08T03:43:57;99795.47;;;6.46;94.87
5703;BME280;2876;51.738;10.050;2023-04-08T03:49:59;99795.47;;;6.46;95.63
5703;BME280;2876;51.738;10.050;2023-04-08T03:56:01;99797.78;;;6.41;95.38
5703;BME280;2876;51.738;10.050;2023-04-08T04:02:04;99798.16;;;6.12;96.12
5703;BME280;2876;51.738;10.050;2023-04-08T04:08:06;99790.59;;;6.33;96.65
5703;BME280;2876;51.738;10.050;2023-04-08T04:14:10;99803.25;;;6.31;96.51
5703;BME280;2876;51.738;10.050;2023-04-08T04:20:12;99804.22;;;6.22;97.46
5703;BME280;2876;51.738;10.050;2023-04-08T04:26:14;99816.78;;;6.12;98.07
5703;BME280;2876;51.738;10.050;2023-04-08T04:32:16;99820.41;;;6.03;98.96
5703;BME280;2876;51.738;10.050;2023-04-08T04:38:18;99824.53;;;6.23;98.15
5703;BME280;2876;51.738;10.050;2023-04-08T04:44:20;99832.13;;;6.10;98.96
5703;BME280;2876;51.738;10.050;2023-04-08T04:50:22;99829.50;;;6.26;98.77
5703;BME280;2876;51.738;10.050;2023-04-08T04:56:24;99831.88;;;6.03;99.42
5703;BME280;2876;51.738;10.050;2023-04-08T05:02:27;99828.34;;;5.95;100.00
5703;BME280;2876;51.738;10.050;2023-04-08T05:08:29;99839.03;;;6.03;100.00
5703;BME280;2876;51.738;10.050;2023-04-08T05:14:31;99854.03;;;6.04;100.00
5703;BME280;2876;51.738;10.050;2023-04-08T05:20:34;99855.31;;;6.26;100.00
5703;BME280;2876;51.738;10.050;2023-04-08T05:26:36;99855.44;;;6.16;99.78
5703;BME280;2876;51.738;10.050;2023-04-08T05:32:38;99864.84;;;6.02;100.00
5703;BME280;2876;51.738;10.050;2023-04-08T05:38:40;99872.53;;;6.05;100.00
5703;BME280;2876;51.738;10.050;2023-04-08T05:44:44;99866.66;;;6.28;99.85
5703;BME280;2876;51.738;10.050;2023-04-08T05:50:46;99881.50;;;6.04;100.00
5703;BME280;2876;51.738;10.050;2023-04-08T05:56:49;99870.75;;;6.14;100.00
5703;BME280;2876;51.738;10.050;2023-04-08T06:02:51;99871.00;;;6.29;100.00
5703;BME280;2876;51.738;10.050;2023-04-08T06:08:53;99876.69;;;6.34;100.00
5703;BME280;2876;51.738;10.050;2023-04-08T06:14:55;99875.88;;;6.42;100.00
5703;BME280;2876;51.738;10.050;2023-04-08T06:20:57;99891.56;;;6.53;99.56
5703;BME280;2876;51.738;10.050;2023-04-08T06:27:00;99891.31;;;6.64;99.30
5703;BME280;2876;51.738;10.050;2023-04-08T06:33:02;99899.91;;;6.50;99.40
5703;BME280;2876;51.738;10.050;2023-04-08T06:39:04;99904.81;;;6.71;99.16
5703;BME280;2876;51.738;10.050;2023-04-08T06:45:06;99903.47;;;6.67;97.97
5703;BME280;2876;51.738;10.050;2023-04-08T06:51:08;99918.31;;;6.69;98.28
5703;BME280;2876;51.738;10.050;2023-04-08T06:57:10;99923.00;;;6.75;97.78
5703;BME280;2876;51.738;10.050;2023-04-08T07:03:12;99925.78;;;6.66;99.38
5703;BME280;2876;51.738;10.050;2023-04-08T07:09:14;99924.91;;;6.99;99.94
5703;BME280;2876;51.738;10.050;2023-04-08T07:15:16;99936.09;;;7.03;98.00
5703;BME280;2876;51.738;10.050;2023-04-08T07:21:18;99941.47;;;7.11;97.24
5703;BME280;2876;51.738;10.050;2023-04-08T07:27:20;99954.84;;;7.19;97.24
5703;BME280;2876;51.738;10.050;2023-04-08T07:33:22;99957.91;;;6.98;97.66
5703;BME280;2876;51.738;10.050;2023-04-08T07:39:24;99966.00;;;7.15;97.31
5703;BME280;2876;51.738;10.050;2023-04-08T07:45:26;99972.84;;;7.25;96.63
5703;BME280;2876;51.738;10.050;2023-04-08T07:51:28;99979.72;;;7.44;94.92
5703;BME280;2876;51.738;10.050;2023-04-08T07:57:31;99983.53;;;7.25;96.23
5703;BME280;2876;51.738;10.050;2023-04-08T08:03:33;99985.56;;;7.31;95.78
5703;BME280;2876;51.738;10.050;2023-04-08T08:09:35;99979.47;;;7.63;96.31
5703;BME280;2876;51.738;10.050;2023-04-08T08:15:37;99989.16;;;7.73;93.85
5703;BME280;2876;51.738;10.050;2023-04-08T08:21:39;99988.81;;;7.76;94.60
5703;BME280;2876;51.738;10.050;2023-04-08T08:27:41;100008.88;;;7.96;93.47
5703;BME280;2876;51.738;10.050;2023-04-08T08:33:43;100005.34;;;7.79;94.06
5703;BME280;2876;51.738;10.050;2023-04-08T08:39:45;100003.66;;;7.95;93.64
5703;BME280;2876;51.738;10.050;2023-04-08T08:45:47;100005.84;;;8.07;93.56
5703;BME280;2876;51.738;10.050;2023-04-08T08:51:49;100011.53;;;8.21;93.40
5703;BME280;2876;51.738;10.050;2023-04-08T08:57:52;100022.91;;;8.14;91.39
5703;BME280;2876;51.738;10.050;2023-04-08T09:04:16;100028.25;;;8.23;91.61
5703;BME280;2876;51.738;10.050;2023-04-08T09:10:27;100040.91;;;8.12;92.52
5703;BME280;2876;51.738;10.050;2023-04-08T09:16:30;100039.91;;;8.22;92.07
5703;BME280;2876;51.738;10.050;2023-04-08T09:22:33;100054.78;;;8.16;92.22
5703;BME280;2876;51.738;10.050;2023-04-08T09:28:35;100041.81;;;8.37;92.80
5703;BME280;2876;51.738;10.050;2023-04-08T09:34:37;100046.47;;;8.44;92.87
5703;BME280;2876;51.738;10.050;2023-04-08T09:40:41;100045.13;;;8.64;90.13
5703;BME280;2876;51.738;10.050;2023-04-08T09:46:54;100061.50;;;8.77;90.37
5703;BME280;2876;51.738;10.050;2023-04-08T09:53:15;100069.09;;;9.13;89.23
5703;BME280;2876;51.738;10.050;2023-04-08T09:59:24;100067.91;;;9.15;88.62
5703;BME280;2876;51.738;10.050;2023-04-08T10:05:30;100066.25;;;9.14;89.03
5703;BME280;2876;51.738;10.050;2023-04-08T10:11:33;100062.25;;;9.10;88.49
5703;BME280;2876;51.738;10.050;2023-04-08T10:17:35;100069.66;;;8.92;89.67
5703;BME280;2876;51.738;10.050;2023-04-08T10:23:55;100075.28;;;9.13;89.67
5703;BME280;2876;51.738;10.050;2023-04-08T10:29:59;100071.06;;;9.27;88.22
5703;BME280;2876;51.738;10.050;2023-04-08T10:36:09;100074.66;;;9.82;86.49
5703;BME280;2876;51.738;10.050;2023-04-08T10:42:12;100076.88;;;10.01;86.65
5703;BME280;2876;51.738;10.050;2023-04-08T10:54:20;100077.75;;;9.94;84.46
5703;BME280;2876;51.738;10.050;2023-04-08T11:00:41;100076.88;;;10.01;84.14
5703;BME280;2876;51.738;10.050;2023-04-08T11:06:45;100080.69;;;9.76;84.78
5703;BME280;2876;51.738;10.050;2023-04-08T11:12:48;100071.13;;;9.50;86.14
5703;BME280;2876;51.738;10.050;2023-04-08T11:18:51;100084.16;;;9.53;87.02
5703;BME280;2876;51.738;10.050;2023-04-08T11:24:55;100090.38;;;9.85;87.08
5703;BME280;2876;51.738;10.050;2023-04-08T11:30:58;100087.53;;;9.86;85.42
5703;BME280;2876;51.738;10.050;2023-04-08T11:37:00;100088.94;;;9.74;86.88
5703;BME280;2876;51.738;10.050;2023-04-08T11:43:13;100083.91;;;10.02;84.90
5703;BME280;2876;51.738;10.050;2023-04-08T11:49:17;100085.09;;;10.00;85.37
5703;BME280;2876;51.738;10.050;2023-04-08T11:55:28;100083.59;;;9.97;86.20
5703;BME280;2876;51.738;10.050;2023-04-08T12:01:31;100092.69;;;10.19;84.57
5703;BME280;2876;51.738;10.050;2023-04-08T12:07:33;100082.84;;;10.11;85.72
5703;BME280;2876;51.738;10.050;2023-04-08T12:13:35;100082.72;;;10.36;85.20
5703;BME280;2876;51.738;10.050;2023-04-08T12:19:37;100092.84;;;10.86;82.97
5703;BME280;2876;51.738;10.050;2023-04-08T12:25:39;100091.81;;;11.02;82.14
5703;BME280;2876;51.738;10.050;2023-04-08T12:31:41;100096.72;;;10.99;80.98
5703;BME280;2876;51.738;10.050;2023-04-08T12:37:43;100099.16;;;10.71;82.81
5703;BME280;2876;51.738;10.050;2023-04-08T12:43:45;100086.38;;;11.25;82.40
5703;BME280;2876;51.738;10.050;2023-04-08T12:49:47;100096.47;;;11.53;80.72
5703;BME280;2876;51.738;10.050;2023-04-08T12:55:50;100096.06;;;11.71;79.33
5703;BME280;2876;51.738;10.050;2023-04-08T13:01:56;100084.06;;;11.52;79.24
5703;BME280;2876;51.738;10.050;2023-04-08T13:07:57;100087.00;;;11.57;79.91
5703;BME280;2876;51.738;10.050;2023-04-08T13:13:59;100076.44;;;11.70;78.75
5703;BME280;2876;51.738;10.050;2023-04-08T13:20:01;100082.84;;;11.69;78.21
5703;BME280;2876;51.738;10.050;2023-04-08T13:26:03;100088.66;;;11.87;77.43
5703;BME280;2876;51.738;10.050;2023-04-08T13:32:05;100085.53;;;11.69;78.36
5703;BME280;2876;51.738;10.050;2023-04-08T13:38:07;100085.16;;;11.87;76.39
5703;BME280;2876;51.738;10.050;2023-04-08T13:44:09;100089.66;;;11.72;77.45
5703;BME280;2876;51.738;10.050;2023-04-08T13:50:12;100083.19;;;11.66;78.06
5703;BME280;2876;51.738;10.050;2023-04-08T13:56:14;100084.03;;;11.66;79.51
5703;BME280;2876;51.738;10.050;2023-04-08T14:02:16;100085.16;;;11.87;78.61
5703;BME280;2876;51.738;10.050;2023-04-08T14:08:18;100094.31;;;11.92;76.39
5703;BME280;2876;51.738;10.050;2023-04-08T14:14:26;100095.75;;;12.31;76.71
5703;BME280;2876;51.738;10.050;2023-04-08T14:20:29;100091.66;;;13.89;69.43
5703;BME280;2876;51.738;10.050;2023-04-08T14:26:31;100089.44;;;14.06;67.37
5703;BME280;2876;51.738;10.050;2023-04-08T14:32:36;100095.66;;;14.00;67.19
5703;BME280;2876;51.738;10.050;2023-04-08T14:38:39;100098.47;;;13.37;68.55
5703;BME280;2876;51.738;10.050;2023-04-08T14:44:41;100089.25;;;17.18;59.17
5703;BME280;2876;51.738;10.050;2023-04-08T14:50:43;100089.84;;;15.68;59.97
5703;BME280;2876;51.738;10.050;2023-04-08T14:56:46;100089.91;;;15.35;60.99
5703;BME280;2876;51.738;10.050;2023-04-08T15:02:47;100088.25;;;14.35;64.36
5703;BME280;2876;51.738;10.050;2023-04-08T15:08:49;100077.81;;;14.12;64.24
5703;BME280;2876;51.738;10.050;2023-04-08T15:14:52;100079.84;;;13.90;65.38
5703;BME280;2876;51.738;10.050;2023-04-08T15:20:54;100074.03;;;13.38;68.63
5703;BME280;2876;51.738;10.050;2023-04-08T15:26:55;100079.78;;;13.29;69.07
5703;BME280;2876;51.738;10.050;2023-04-08T15:32:57;100075.63;;;14.49;63.61
5703;BME280;2876;51.738;10.050;2023-04-08T15:38:59;100087.75;;;15.57;62.11
5703;BME280;2876;51.738;10.050;2023-04-08T15:45:03;100083.47;;;15.36;59.52
5703;BME280;2876;51.738;10.050;2023-04-08T15:51:08;100089.91;;;14.42;62.47
5703;BME280;2876;51.738;10.050;2023-04-08T15:57:11;100102.63;;;13.39;66.81
5703;BME280;2876;51.738;10.050;2023-04-08T16:03:15;100100.03;;;12.68;64.30
5703;BME280;2876;51.738;10.050;2023-04-08T16:09:17;100104.63;;;12.10;65.39
5703;BME280;2876;51.738;10.050;2023-04-08T16:15:23;100105.69;;;11.80;66.69
5703;BME280;2876;51.738;10.050;2023-04-08T16:21:25;100118.44;;;11.27;68.70
5703;BME280;2876;51.738;10.050;2023-04-08T16:27:27;100125.97;;;10.93;70.00
5703;BME280;2876;51.738;10.050;2023-04-08T16:33:29;100123.84;;;10.66;71.91
5703;BME280;2876;51.738;10.050;2023-04-08T16:39:31;100127.88;;;10.85;72.24
5703;BME280;2876;51.738;10.050;2023-04-08T16:45:33;100129.59;;;10.63;74.58
5703;BME280;2876;51.738;10.050;2023-04-08T16:51:35;100140.44;;;10.47;76.18
5703;BME280;2876;51.738;10.050;2023-04-08T16:57:37;100147.31;;;10.49;76.39
5703;BME280;2876;51.738;10.050;2023-04-08T17:03:39;100155.22;;;10.43;76.90
5703;BME280;2876;51.738;10.050;2023-04-08T17:09:42;100156.84;;;10.52;76.82
5703;BME280;2876;51.738;10.050;2023-04-08T17:15:44;100162.13;;;10.37;76.82
5703;BME280;2876;51.738;10.050;2023-04-08T17:21:45;100166.66;;;10.36;75.55
5703;BME280;2876;51.738;10.050;2023-04-08T17:27:47;100170.66;;;10.40;74.76
5703;BME280;2876;51.738;10.050;2023-04-08T17:33:49;100173.28;;;10.49;73.52
5703;BME280;2876;51.738;10.050;2023-04-08T17:39:52;100177.16;;;10.46;76.00
5703;BME280;2876;51.738;10.050;2023-04-08T17:46:01;100185.69;;;10.19;76.65
5703;BME280;2876;51.738;10.050;2023-04-08T17:52:03;100186.16;;;10.22;75.02
5703;BME280;2876;51.738;10.050;2023-04-08T17:58:06;100181.97;;;10.20;74.90
5703;BME280;2876;51.738;10.050;2023-04-08T18:04:08;100181.50;;;10.16;75.36
5703;BME280;2876;51.738;10.050;2023-04-08T18:10:12;100195.91;;;10.15;76.74
5703;BME280;2876;51.738;10.050;2023-04-08T18:16:18;100203.38;;;9.97;77.82
5703;BME280;2876;51.738;10.050;2023-04-08T18:22:21;100212.56;;;9.94;78.56
5703;BME280;2876;51.738;10.050;2023-04-08T18:28:23;100213.50;;;9.70;78.96
5703;BME280;2876;51.738;10.050;2023-04-08T18:34:25;100223.09;;;9.40;79.98
5703;BME280;2876;51.738;10.050;2023-04-08T18:40:27;100232.66;;;9.26;81.18
5703;BME280;2876;51.738;10.050;2023-04-08T18:46:30;100233.69;;;9.09;82.55
5703;BME280;2876;51.738;10.050;2023-04-08T18:52:33;100242.53;;;8.93;83.83
5703;BME280;2876;51.738;10.050;2023-04-08T18:58:35;100241.19;;;9.05;84.13
5703;BME280;2876;51.738;10.050;2023-04-08T19:04:37;100242.84;;;8.74;85.22
5703;BME280;2876;51.738;10.050;2023-04-08T19:10:39;100245.19;;;8.77;85.35
5703;BME280;2876;51.738;10.050;2023-04-08T19:16:41;100242.84;;;8.74;85.89
5703;BME280;2876;51.738;10.050;2023-04-08T19:22:43;100246.88;;;8.78;85.42
5703;BME280;2876;51.738;10.050;2023-04-08T19:28:45;100247.19;;;8.58;84.51
5703;BME280;2876;51.738;10.050;2023-04-08T19:34:47;100240.06;;;7.99;84.91
5703;BME280;2876;51.738;10.050;2023-04-08T19:40:49;100250.28;;;7.69;86.73
5703;BME280;2876;51.738;10.050;2023-04-08T19:46:51;100249.34;;;7.52;88.69
5703;BME280;2876;51.738;10.050;2023-04-08T19:52:53;100245.16;;;7.50;90.11
5703;BME280;2876;51.738;10.050;2023-04-08T19:58:55;100244.31;;;7.49;90.34
5703;BME280;2876;51.738;10.050;2023-04-08T20:04:59;100252.13;;;7.43;91.08
5703;BME280;2876;51.738;10.050;2023-04-08T20:11:02;100264.25;;;7.37;91.23
5703;BME280;2876;51.738;10.050;2023-04-08T20:17:05;100262.81;;;7.25;92.09
5703;BME280;2876;51.738;10.050;2023-04-08T20:23:07;100261.44;;;7.21;92.74
5703;BME280;2876;51.738;10.050;2023-04-08T20:29:09;100254.19;;;7.31;92.42
5703;BME280;2876;51.738;10.050;2023-04-08T20:35:11;100260.31;;;7.23;93.13
5703;BME280;2876;51.738;10.050;2023-04-08T20:41:18;100260.97;;;7.25;93.48
5703;BME280;2876;51.738;10.050;2023-04-08T20:47:20;100271.72;;;7.33;93.36
5703;BME280;2876;51.738;10.050;2023-04-08T20:53:22;100271.31;;;7.02;94.27
5703;BME280;2876;51.738;10.050;2023-04-08T20:59:25;100265.41;;;6.63;94.15
5703;BME280;2876;51.738;10.050;2023-04-08T21:05:27;100267.16;;;6.37;93.25
5703;BME280;2876;51.738;10.050;2023-04-08T21:11:29;100259.00;;;6.10;94.12
5703;BME280;2876;51.738;10.050;2023-04-08T21:17:31;100259.25;;;5.80;94.41
5703;BME280;2876;51.738;10.050;2023-04-08T21:23:33;100262.25;;;5.57;94.29
5703;BME280;2876;51.738;10.050;2023-04-08T21:29:35;100266.09;;;5.26;94.97
5703;BME280;2876;51.738;10.050;2023-04-08T21:35:37;100263.88;;;5.02;95.06
5703;BME280;2876;51.738;10.050;2023-04-08T21:41:39;100261.22;;;4.82;95.54
5703;BME280;2876;51.738;10.050;2023-04-08T21:47:41;100270.16;;;4.72;96.61
5703;BME280;2876;51.738;10.050;2023-04-08T21:53:44;100270.31;;;4.70;97.20
5703;BME280;2876;51.738;10.050;2023-04-08T21:59:46;100263.16;;;4.61;97.33
5703;BME280;2876;51.738;10.050;2023-04-08T22:05:48;100261.91;;;4.65;97.94
5703;BME280;2876;51.738;10.050;2023-04-08T22:11:50;100268.63;;;4.60;98.18
5703;BME280;2876;51.738;10.050;2023-04-08T22:17:52;100267.03;;;4.38;99.30
5703;BME280;2876;51.738;10.050;2023-04-08T22:23:54;100257.00;;;4.41;99.10
5703;BME280;2876;51.738;10.050;2023-04-08T22:29:56;100266.03;;;4.19;98.41
5703;BME280;2876;51.738;10.050;2023-04-08T22:35:58;100264.00;;;4.02;98.61
5703;BME280;2876;51.738;10.050;2023-04-08T22:42:00;100260.44;;;3.82;100.00
5703;BME280;2876;51.738;10.050;2023-04-08T22:48:02;100268.03;;;3.66;99.95
5703;BME280;2876;51.738;10.050;2023-04-08T22:54:04;100270.16;;;3.72;100.00
5703;BME280;2876;51.738;10.050;2023-04-08T23:00:07;100271.53;;;3.66;99.46
5703;BME280;2876;51.738;10.050;2023-04-08T23:06:09;100266.25;;;3.76;99.27
5703;BME280;2876;51.738;10.050;2023-04-08T23:12:12;100272.06;;;3.60;100.00
5703;BME280;2876;51.738;10.050;2023-04-08T23:18:14;100272.50;;;3.65;99.67
5703;BME280;2876;51.738;10.050;2023-04-08T23:24:16;100275.22;;;3.54;100.00
5703;BME280;2876;51.738;10.050;2023-04-08T23:30:17;100275.19;;;3.75;100.00
5703;BME280;2876;51.738;10.050;2023-04-08T23:36:19;100276.03;;;3.75;100.00
5703;BME280;2876;51.738;10.050;2023-04-08T23:42:21;100279.53;;;3.76;100.00
5703;BME280;2876;51.738;10.050;2023-04-08T23:48:27;100283.56;;;3.70;100.00
5703;BME280;2876;51.738;10.050;2023-04-08T23:54:29;100275.38;;;3.83;100.00
